createdAt,value
2018-09-14T00:00:11.388Z,12.57
2018-09-14T00:02:39.125Z,12.63
2018-09-14T00:05:07.467Z,12.76
2018-09-14T00:07:36.367Z,12.80
2018-09-14T00:10:05.389Z,12.80
2018-09-14T00:12:33.700Z,12.66
2018-09-14T00:15:02.599Z,12.59
2018-09-14T00:17:30.933Z,12.43
2018-09-14T00:19:59.238Z,12.21
2018-09-14T00:22:27.558Z,12.15
2018-09-14T00:24:55.878Z,12.19
2018-09-14T00:27:23.614Z,12.19
2018-09-14T00:29:52.511Z,12.14
2018-09-14T00:32:20.830Z,12.15
2018-09-14T00:34:48.569Z,12.17
2018-09-14T00:37:17.471Z,12.24
2018-09-14T00:39:45.802Z,12.38
2018-09-14T00:42:14.116Z,12.52
2018-09-14T00:44:42.443Z,12.60
2018-09-14T00:47:10.170Z,12.65
2018-09-14T00:49:39.065Z,12.63
2018-09-14T00:52:07.380Z,12.57
2018-09-14T00:54:35.117Z,12.46
2018-09-14T00:57:04.024Z,12.32
2018-09-14T00:59:32.355Z,12.29
2018-09-14T01:02:00.677Z,12.33
2018-09-14T01:04:28.993Z,12.35
2018-09-14T01:06:56.725Z,12.40
2018-09-14T01:09:25.621Z,12.48
2018-09-14T01:11:53.349Z,12.56
2018-09-14T01:14:22.240Z,12.61
2018-09-14T01:16:50.556Z,12.64
2018-09-14T01:19:18.291Z,12.68
2018-09-14T01:21:47.193Z,12.68
2018-09-14T01:24:14.928Z,12.64
2018-09-14T01:26:43.244Z,12.66
2018-09-14T01:29:12.146Z,12.69
2018-09-14T01:31:40.471Z,12.70
2018-09-14T01:34:08.788Z,12.63
2018-09-14T01:36:37.109Z,12.56
2018-09-14T01:39:05.418Z,12.46
2018-09-14T01:41:33.744Z,12.41
2018-09-14T01:44:01.477Z,12.34
2018-09-14T01:46:30.385Z,12.28
2018-09-14T01:48:58.707Z,12.27
2018-09-14T01:51:26.449Z,12.30
2018-09-14T01:53:54.781Z,12.28
2018-09-14T01:56:23.693Z,12.25
2018-09-14T01:58:51.438Z,12.25
2018-09-14T02:01:20.340Z,12.23
2018-09-14T02:03:48.078Z,12.18
2018-09-14T02:06:16.397Z,12.10
2018-09-14T02:08:45.305Z,12.05
2018-09-14T02:11:13.036Z,11.85
2018-09-14T02:13:41.348Z,11.65
2018-09-14T02:16:09.664Z,11.50
2018-09-14T02:18:38.554Z,11.41
2018-09-14T02:21:06.298Z,11.35
2018-09-14T02:23:35.208Z,11.35
2018-09-14T02:26:03.537Z,11.37
2018-09-14T02:28:31.859Z,11.34
2018-09-14T02:31:00.179Z,11.31
2018-09-14T02:33:27.937Z,11.33
2018-09-14T02:35:56.866Z,11.30
2018-09-14T02:38:25.188Z,11.31
2018-09-14T02:40:53.513Z,11.33
2018-09-14T02:43:21.254Z,11.38
2018-09-14T02:45:50.155Z,11.38
2018-09-14T02:48:18.476Z,11.48
2018-09-14T02:50:46.209Z,11.57
2018-09-14T02:53:14.534Z,11.66
2018-09-14T02:55:42.853Z,11.75
2018-09-14T02:58:11.177Z,11.80
2018-09-14T03:00:39.498Z,11.67
2018-09-14T03:03:08.396Z,11.54
2018-09-14T03:05:36.714Z,11.49
2018-09-14T03:08:05.028Z,11.44
2018-09-14T03:10:33.342Z,11.36
2018-09-14T03:13:01.084Z,11.26
2018-09-14T03:15:29.813Z,11.15
2018-09-14T03:17:58.306Z,11.11
2018-09-14T03:20:26.628Z,11.11
2018-09-14T03:22:54.396Z,11.08
2018-09-14T03:25:23.310Z,11.05
2018-09-14T03:27:51.046Z,11.06
2018-09-14T03:30:19.378Z,11.10
2018-09-14T03:32:47.694Z,11.14
2018-09-14T03:35:16.592Z,11.18
2018-09-14T03:37:44.901Z,11.21
2018-09-14T03:40:12.646Z,11.27
2018-09-14T03:42:40.971Z,11.39
2018-09-14T03:45:09.895Z,11.51
2018-09-14T03:47:38.217Z,11.62
2018-09-14T03:50:06.550Z,11.67
2018-09-14T03:52:34.896Z,11.55
2018-09-14T03:55:02.659Z,11.38
2018-09-14T03:57:30.964Z,11.36
2018-09-14T03:59:59.877Z,11.43
2018-09-14T04:02:27.623Z,11.52
2018-09-14T04:04:56.526Z,11.61
2018-09-14T04:07:24.863Z,11.69
2018-09-14T04:09:53.185Z,11.76
2018-09-14T04:12:20.932Z,11.83
2018-09-14T04:14:49.825Z,11.91
2018-09-14T04:17:18.141Z,11.87
2018-09-14T04:19:46.477Z,11.77
2018-09-14T04:22:14.795Z,11.65
2018-09-14T04:24:43.121Z,11.60
2018-09-14T04:27:10.860Z,11.53
2018-09-14T04:29:39.176Z,11.63
2018-09-14T04:32:08.096Z,11.77
2018-09-14T04:34:35.831Z,11.88
2018-09-14T04:37:04.765Z,11.99
2018-09-14T04:39:33.075Z,12.09
2018-09-14T04:42:00.837Z,11.97
2018-09-14T04:44:29.170Z,11.85
2018-09-14T04:46:58.067Z,11.95
2018-09-14T04:49:25.813Z,12.10
2018-09-14T04:51:54.720Z,12.22
2018-09-14T04:54:23.052Z,12.33
2018-09-14T04:56:51.386Z,12.41
2018-09-14T04:59:19.794Z,12.48
2018-09-14T05:01:48.088Z,12.54
2018-09-14T05:04:16.436Z,12.62
2018-09-14T05:06:44.185Z,12.73
2018-09-14T05:09:13.101Z,12.76
2018-09-14T05:11:41.432Z,12.84
2018-09-14T05:14:09.829Z,12.93
2018-09-14T05:16:38.133Z,12.97
2018-09-14T05:19:06.464Z,12.97
2018-09-14T05:21:34.816Z,12.99
2018-09-14T05:24:02.568Z,13.00
2018-09-14T05:26:30.922Z,13.01
2018-09-14T05:28:59.823Z,13.04
2018-09-14T05:31:27.578Z,13.06
2018-09-14T05:33:55.904Z,13.09
2018-09-14T05:36:24.215Z,13.13
2018-09-14T05:38:52.536Z,13.13
2018-09-14T05:41:21.472Z,13.14
2018-09-14T05:43:49.311Z,12.96
2018-09-14T05:46:17.625Z,12.85
2018-09-14T05:48:46.667Z,12.91
2018-09-14T05:51:14.183Z,12.99
2018-09-14T05:53:54.723Z,13.12
2018-09-14T05:56:23.039Z,13.25
2018-09-14T05:58:50.785Z,13.37
2018-09-14T06:01:19.115Z,13.47
2018-09-14T06:03:47.443Z,13.55
2018-09-14T06:06:16.339Z,13.63
2018-09-14T06:08:44.089Z,13.72
2018-09-14T06:11:13.048Z,13.78
2018-09-14T06:13:41.394Z,13.86
2018-09-14T06:16:09.155Z,13.90
2018-09-14T06:18:38.054Z,13.95
2018-09-14T06:21:06.399Z,13.99
2018-09-14T06:23:34.147Z,14.04
2018-09-14T06:26:03.053Z,14.12
2018-09-14T06:28:31.415Z,14.18
2018-09-14T06:30:59.755Z,14.28
2018-09-14T06:33:27.505Z,14.36
2018-09-14T06:35:57.042Z,14.46
2018-09-14T06:38:24.792Z,14.56
2018-09-14T06:40:53.119Z,14.66
2018-09-14T06:43:20.884Z,14.74
2018-09-14T06:45:49.809Z,14.81
2018-09-14T06:48:17.550Z,14.87
2018-09-14T06:50:45.880Z,14.95
2018-09-14T06:53:14.798Z,15.00
2018-09-14T06:55:43.127Z,15.04
2018-09-14T06:58:11.114Z,15.09
2018-09-14T07:00:40.475Z,15.13
2018-09-14T07:03:08.798Z,15.15
2018-09-14T07:05:37.116Z,15.17
2018-09-14T07:08:05.441Z,15.17
2018-09-14T07:10:33.201Z,15.18
2018-09-14T07:13:01.572Z,15.23
2018-09-14T07:15:30.435Z,15.30
2018-09-14T07:17:58.761Z,15.32
2018-09-14T07:20:27.087Z,15.37
2018-09-14T07:22:55.416Z,15.51
2018-09-14T07:25:23.765Z,15.62
2018-09-14T07:27:52.101Z,15.72
2018-09-14T07:30:19.816Z,15.81
2018-09-14T07:32:49.502Z,15.91
2018-09-14T07:35:16.519Z,15.98
2018-09-14T07:37:45.411Z,16.05
2018-09-14T07:40:13.789Z,16.14
2018-09-14T07:42:42.145Z,16.24
2018-09-14T07:45:10.458Z,16.34
2018-09-14T07:47:38.781Z,16.42
2018-09-14T07:50:07.110Z,16.53
2018-09-14T07:52:34.849Z,16.65
2018-09-14T07:55:03.758Z,16.76
2018-09-14T07:57:32.088Z,16.86
2018-09-14T08:00:00.401Z,16.96
2018-09-14T08:02:28.733Z,17.07
2018-09-14T08:04:57.763Z,17.20
2018-09-14T08:07:25.409Z,17.27
2018-09-14T08:09:53.730Z,17.30
2018-09-14T08:12:22.141Z,17.35
2018-09-14T08:14:50.492Z,17.43
2018-09-14T08:17:18.841Z,17.46
2018-09-14T08:19:47.849Z,17.51
2018-09-14T08:22:16.227Z,17.58
2018-09-14T08:24:44.914Z,17.63
2018-09-14T08:27:13.334Z,17.73
2018-09-14T08:29:41.667Z,17.80
2018-09-14T08:32:10.025Z,17.88
2018-09-14T08:34:38.973Z,17.95
2018-09-14T08:37:07.294Z,17.97
2018-09-14T08:39:35.618Z,17.97
2018-09-14T08:42:03.964Z,17.99
2018-09-14T08:44:32.290Z,18.04
2018-09-14T08:47:00.610Z,18.05
2018-09-14T08:49:28.932Z,18.10
2018-09-14T08:51:57.248Z,18.15
2018-09-14T08:54:25.561Z,18.12
2018-09-14T08:56:53.876Z,18.16
2018-09-14T08:59:21.626Z,18.23
2018-09-14T09:01:50.528Z,18.25
2018-09-14T09:04:18.914Z,18.25
2018-09-14T09:06:47.244Z,18.29
2018-09-14T09:09:15.053Z,18.41
2018-09-14T09:11:43.933Z,18.46
2018-09-14T09:14:12.305Z,18.45
2018-09-14T09:16:40.627Z,18.54
2018-09-14T09:19:09.651Z,18.59
2018-09-14T09:21:37.956Z,18.56
2018-09-14T09:24:06.304Z,18.56
2018-09-14T09:26:34.628Z,18.58
2018-09-14T09:29:02.979Z,18.68
2018-09-14T09:31:31.352Z,18.71
2018-09-14T09:33:59.665Z,18.77
2018-09-14T09:36:27.406Z,18.82
2018-09-14T09:38:55.735Z,18.87
2018-09-14T09:41:24.056Z,18.92
2018-09-14T09:43:52.517Z,19.03
2018-09-14T09:46:21.375Z,19.14
2018-09-14T09:48:49.725Z,19.13
2018-09-14T09:51:18.103Z,19.03
2018-09-14T09:53:46.391Z,19.03
2018-09-14T09:56:14.138Z,19.05
2018-09-14T09:58:43.179Z,19.07
2018-09-14T10:01:11.492Z,19.14
2018-09-14T10:03:39.860Z,19.20
2018-09-14T10:06:07.566Z,19.27
2018-09-14T10:08:36.483Z,19.26
2018-09-14T10:11:04.233Z,19.21
2018-09-14T10:13:33.132Z,19.26
2018-09-14T10:16:01.451Z,19.39
2018-09-14T10:18:29.190Z,19.49
2018-09-14T10:20:58.123Z,19.53
2018-09-14T10:23:26.422Z,19.60
2018-09-14T10:25:54.749Z,19.61
2018-09-14T10:28:23.068Z,19.57
2018-09-14T10:30:51.391Z,19.53
2018-09-14T10:33:20.227Z,19.50
2018-09-14T10:35:49.282Z,19.44
2018-09-14T10:38:17.626Z,19.40
2018-09-14T10:40:45.365Z,19.39
2018-09-14T10:43:14.263Z,19.34
2018-09-14T10:45:42.622Z,19.31
2018-09-14T10:48:10.965Z,19.32
2018-09-14T10:50:39.309Z,19.40
2018-09-14T10:53:07.659Z,19.49
2018-09-14T10:55:35.994Z,19.57
2018-09-14T10:58:04.316Z,19.66
2018-09-14T11:03:31.297Z,19.88
2018-09-14T11:05:59.049Z,19.96
2018-09-14T11:08:27.370Z,20.12
2018-09-14T11:10:56.289Z,20.27
2018-09-14T11:13:24.640Z,20.34
2018-09-14T11:15:52.950Z,20.44
2018-09-14T11:21:09.661Z,20.71
2018-09-14T11:23:37.985Z,20.85
2018-09-14T11:26:06.307Z,20.93
2018-09-14T11:28:34.642Z,20.92
2018-09-14T11:31:22.098Z,20.98
2018-09-14T11:33:50.399Z,20.90
2018-09-14T11:36:19.006Z,20.78
2018-09-14T11:38:47.435Z,20.68
2018-09-14T11:41:15.136Z,20.60
2018-09-14T11:43:43.459Z,20.62
2018-09-14T11:46:12.416Z,20.84
2018-09-14T11:48:40.877Z,20.93
2018-09-14T11:51:08.617Z,21.14
2018-09-14T11:53:37.557Z,21.35
2018-09-14T11:56:06.010Z,21.58
2018-09-14T11:58:34.369Z,21.74
2018-09-14T12:01:02.714Z,22.02
2018-09-14T12:03:31.055Z,22.25
2018-09-14T12:05:59.424Z,22.43
2018-09-14T12:08:27.194Z,22.62
2018-09-14T12:10:56.116Z,22.85
2018-09-14T12:13:24.428Z,22.99
2018-09-14T12:15:52.740Z,23.01
2018-09-14T12:18:20.476Z,22.77
2018-09-14T12:20:48.806Z,22.43
2018-09-14T12:23:17.709Z,22.19
2018-09-14T12:25:46.030Z,22.02
2018-09-14T12:28:14.363Z,21.90
2018-09-14T12:30:42.667Z,22.07
2018-09-14T12:33:10.402Z,22.44
2018-09-14T12:35:38.778Z,22.89
2018-09-14T12:38:07.627Z,23.11
2018-09-14T12:40:35.376Z,23.34
2018-09-14T12:43:04.308Z,23.13
2018-09-14T12:45:32.054Z,23.20
2018-09-14T12:48:00.957Z,23.49
2018-09-14T12:50:29.296Z,23.71
2018-09-14T12:52:57.680Z,23.90
2018-09-14T12:55:26.032Z,23.91
2018-09-14T12:57:54.394Z,23.93
2018-09-14T13:00:22.727Z,24.34
2018-09-14T13:02:51.023Z,24.70
2018-09-14T13:05:19.401Z,24.78
2018-09-14T13:07:47.786Z,24.87
2018-09-14T13:10:15.531Z,24.70
2018-09-14T13:12:44.423Z,24.55
2018-09-14T13:15:12.760Z,24.75
2018-09-14T13:17:41.108Z,25.09
2018-09-14T13:20:09.926Z,25.36
2018-09-14T13:22:39.567Z,25.34
2018-09-14T13:25:07.561Z,25.06
2018-09-14T13:27:36.458Z,25.24
2018-09-14T13:30:04.803Z,25.73
2018-09-14T13:32:32.550Z,26.18
2018-09-14T13:35:01.478Z,26.53
2018-09-14T13:37:29.226Z,26.86
2018-09-14T13:39:58.158Z,27.16
2018-09-14T13:42:26.644Z,27.43
2018-09-14T13:44:55.025Z,27.10
2018-09-14T13:47:24.543Z,26.48
2018-09-14T13:49:52.179Z,25.99
2018-09-14T13:52:20.500Z,25.53
2018-09-14T13:54:48.864Z,25.11
2018-09-14T13:57:18.176Z,24.79
2018-09-14T13:59:45.717Z,24.40
2018-09-14T14:02:18.214Z,24.10
2018-09-14T14:07:36.136Z,25.34
2018-09-14T14:12:53.475Z,26.43
2018-09-14T14:15:40.273Z,26.14
2018-09-14T14:18:07.754Z,25.75
2018-09-14T14:20:37.042Z,25.66
2018-09-14T14:23:20.181Z,25.58
2018-09-14T14:25:48.613Z,26.19
2018-09-14T14:31:07.841Z,26.27
2018-09-14T14:33:36.974Z,27.00
2018-09-14T14:36:07.410Z,27.23
2018-09-14T14:41:36.301Z,27.71
2018-09-14T14:46:51.442Z,28.31
2018-09-14T14:49:20.413Z,28.63
2018-09-14T14:51:48.707Z,28.90
2018-09-14T14:54:19.064Z,29.14
2018-09-14T14:56:47.127Z,29.22
2018-09-14T14:59:14.905Z,29.21
2018-09-14T15:01:43.866Z,29.59
2018-09-14T15:04:12.482Z,29.62
2018-09-14T15:06:41.141Z,29.60
2018-09-14T15:09:10.051Z,29.72
2018-09-14T15:11:37.827Z,29.67
2018-09-14T15:14:05.557Z,29.74
2018-09-14T15:16:34.473Z,30.00
2018-09-14T15:19:03.092Z,30.03
2018-09-14T15:21:32.250Z,29.72
2018-09-14T15:24:00.629Z,28.99
2018-09-14T15:26:29.600Z,28.04
2018-09-14T15:28:57.501Z,26.89
2018-09-14T15:31:25.832Z,26.12
2018-09-14T15:33:54.234Z,25.43
2018-09-14T15:36:21.978Z,24.91
2018-09-14T15:38:50.889Z,24.46
2018-09-14T15:41:19.513Z,23.95
2018-09-14T15:43:47.303Z,23.63
2018-09-14T15:46:16.289Z,23.47
2018-09-14T15:48:44.685Z,23.21
2018-09-14T15:51:13.132Z,23.06
2018-09-14T15:53:41.763Z,22.95
2018-09-14T15:56:10.011Z,22.84
2018-09-14T15:58:38.849Z,22.73
2018-09-14T16:01:07.819Z,22.60
2018-09-14T16:03:36.310Z,22.53
2018-09-14T16:06:04.583Z,22.48
2018-09-14T16:08:32.944Z,22.38
2018-09-14T16:11:00.770Z,22.22
2018-09-14T16:13:29.248Z,22.09
2018-09-14T16:15:58.157Z,22.01
2018-09-14T16:18:26.538Z,21.92
2018-09-14T16:20:54.896Z,21.79
2018-09-14T16:23:23.489Z,21.70
2018-09-14T16:25:51.595Z,21.63
2018-09-14T16:28:19.944Z,21.55
2018-09-14T16:30:48.306Z,21.46
2018-09-14T16:33:16.645Z,21.40
2018-09-14T16:35:44.968Z,21.32
2018-09-14T16:38:12.766Z,21.29
2018-09-14T16:40:41.674Z,21.26
2018-09-14T16:43:10.004Z,21.21
2018-09-14T16:45:37.813Z,21.15
2018-09-14T16:48:06.732Z,21.05
2018-09-14T16:50:35.079Z,20.97
2018-09-14T16:53:03.383Z,20.93
2018-09-14T16:55:31.722Z,20.85
2018-09-14T16:58:01.307Z,20.77
2018-09-14T17:00:30.110Z,20.70
2018-09-14T17:02:58.452Z,20.65
2018-09-14T17:05:31.397Z,20.58
2018-09-14T17:07:59.596Z,20.48
2018-09-14T17:10:28.252Z,20.35
2018-09-14T17:12:56.587Z,20.24
2018-09-14T17:15:25.737Z,20.16
2018-09-14T17:17:54.863Z,19.86
2018-09-14T17:20:24.088Z,19.56
2018-09-14T17:22:52.440Z,19.14
2018-09-14T17:25:20.613Z,18.81
2018-09-14T17:27:48.382Z,18.68
2018-09-14T17:30:17.330Z,18.59
2018-09-14T17:32:45.104Z,18.58
2018-09-14T17:35:14.571Z,18.52
2018-09-14T17:37:42.713Z,18.36
2018-09-14T17:40:11.065Z,18.16
2018-09-14T17:42:39.427Z,18.02
2018-09-14T17:45:07.783Z,17.96
2018-09-14T17:47:36.170Z,17.86
2018-09-14T17:50:04.623Z,17.82
2018-09-14T17:52:33.075Z,17.74
2018-09-14T17:55:01.442Z,17.67
2018-09-14T17:57:29.837Z,17.60
2018-09-14T17:59:58.281Z,17.54
2018-09-14T18:02:26.651Z,17.52
2018-09-14T18:04:55.011Z,17.51
2018-09-14T18:07:23.989Z,17.48
2018-09-14T18:09:52.293Z,17.40
2018-09-14T18:12:20.748Z,17.27
2018-09-14T18:14:49.145Z,17.21
2018-09-14T18:17:17.534Z,17.16
2018-09-14T18:19:45.882Z,17.08
2018-09-14T18:22:14.362Z,16.97
2018-09-14T18:24:42.657Z,16.87
2018-09-14T18:27:11.075Z,16.88
2018-09-14T18:29:39.425Z,16.82
2018-09-14T18:32:07.766Z,16.81
2018-09-14T18:34:36.107Z,16.75
2018-09-14T18:37:04.511Z,16.72
2018-09-14T18:39:32.352Z,16.74
2018-09-14T18:42:01.320Z,16.61
2018-09-14T18:44:30.273Z,16.54
2018-09-14T18:46:57.838Z,16.46
2018-09-14T18:49:26.171Z,16.42
2018-09-14T18:51:56.539Z,16.51
2018-09-14T18:54:23.889Z,16.50
2018-09-14T18:56:52.300Z,16.41
2018-09-14T18:59:20.763Z,16.17
2018-09-14T19:01:49.117Z,16.07
2018-09-14T19:04:18.332Z,16.03
2018-09-14T19:06:46.149Z,15.88
2018-09-14T19:09:15.183Z,15.76
2018-09-14T19:11:42.933Z,15.62
2018-09-14T19:14:12.135Z,15.62
2018-09-14T19:16:40.478Z,15.63
2018-09-14T19:19:09.190Z,15.55
2018-09-14T19:21:37.239Z,15.37
2018-09-14T19:24:05.599Z,15.24
2018-09-14T19:26:33.360Z,15.16
2018-09-14T19:29:02.281Z,15.10
2018-09-14T19:31:30.046Z,15.06
2018-09-14T19:33:58.979Z,15.05
2018-09-14T19:36:26.744Z,15.05
2018-09-14T19:38:57.131Z,15.06
2018-09-14T19:41:24.048Z,14.96
2018-09-14T19:43:52.391Z,14.92
2018-09-14T19:46:20.821Z,14.97
2018-09-14T19:48:49.181Z,15.03
2018-09-14T19:51:25.254Z,15.08
2018-09-14T19:53:53.255Z,15.14
2018-09-14T19:56:22.966Z,15.18
2018-09-14T19:58:51.594Z,15.11
2018-09-14T20:04:18.630Z,15.11
2018-09-14T20:06:46.968Z,15.16
2018-09-14T20:09:15.312Z,15.19
2018-09-14T20:11:43.781Z,15.24
2018-09-14T20:14:12.080Z,15.20
2018-09-14T20:16:40.419Z,15.24
2018-09-14T20:19:08.772Z,15.38
2018-09-14T20:21:37.146Z,15.36
2018-09-14T20:24:04.890Z,15.28
2018-09-14T20:26:33.796Z,15.12
2018-09-14T20:29:02.136Z,15.00
2018-09-14T20:31:30.454Z,14.98
2018-09-14T20:33:58.790Z,15.03
2018-09-14T20:36:28.006Z,15.02
2018-09-14T20:38:56.351Z,15.11
2018-09-14T20:41:25.289Z,15.16
2018-09-14T20:43:53.643Z,15.19
2018-09-14T20:46:22.836Z,15.26
2018-09-14T20:48:52.229Z,15.35
2018-09-14T20:51:20.678Z,15.44
2018-09-14T20:53:49.267Z,15.48
2018-09-14T20:56:17.748Z,15.47
2018-09-14T20:58:46.112Z,15.58
2018-09-14T21:01:14.586Z,15.64
2018-09-14T21:03:42.880Z,15.71
2018-09-14T21:06:11.264Z,15.78
2018-09-14T21:08:39.616Z,15.87
2018-09-14T21:11:07.970Z,16.02
2018-09-14T21:13:36.271Z,16.10
2018-09-14T21:16:04.604Z,16.06
2018-09-14T21:18:32.930Z,16.06
2018-09-14T21:21:01.059Z,16.00
2018-09-14T21:23:29.033Z,15.94
2018-09-14T21:25:57.428Z,15.93
2018-09-14T21:28:25.679Z,15.88
2018-09-14T21:30:54.616Z,15.87
2018-09-14T21:33:22.953Z,15.83
2018-09-14T21:35:51.283Z,15.86
2018-09-14T21:38:19.601Z,15.91
2018-09-14T21:40:47.923Z,15.99
2018-09-14T21:43:16.256Z,16.13
2018-09-14T21:45:44.577Z,16.23
2018-09-14T21:48:12.336Z,16.33
2018-09-14T21:50:41.230Z,16.42
2018-09-14T21:53:09.562Z,16.50
2018-09-14T21:55:37.886Z,16.47
2018-09-14T21:58:05.666Z,16.45
2018-09-14T22:00:33.990Z,16.49
2018-09-14T22:03:03.101Z,16.56
2018-09-14T22:05:32.019Z,16.49
2018-09-14T22:08:00.359Z,16.35
2018-09-14T22:10:28.675Z,16.25
2018-09-14T22:12:57.024Z,16.24
2018-09-14T22:15:25.351Z,16.31
2018-09-14T22:17:53.669Z,16.42
2018-09-14T22:20:21.427Z,16.45
2018-09-14T22:22:49.758Z,16.39
2018-09-14T22:25:18.664Z,16.30
2018-09-14T22:27:47.062Z,16.32
2018-09-14T22:30:14.760Z,16.34
2018-09-14T22:32:43.664Z,16.37
2018-09-14T22:35:12.003Z,16.30
2018-09-14T22:37:40.319Z,16.12
2018-09-14T22:40:08.085Z,16.06
2018-09-14T22:42:36.986Z,16.18
2018-09-14T22:45:05.315Z,16.27
2018-09-14T22:47:33.640Z,16.33
2018-09-14T22:50:02.194Z,16.22
2018-09-14T22:52:29.738Z,16.13
2018-09-14T22:54:58.646Z,16.15
2018-09-14T22:57:26.381Z,16.25
2018-09-14T22:59:55.296Z,16.22
2018-09-14T23:02:23.053Z,16.12
2018-09-14T23:04:51.954Z,16.02
2018-09-14T23:07:20.288Z,15.91
2018-09-14T23:09:48.619Z,15.89
2018-09-14T23:12:16.966Z,15.98
2018-09-14T23:14:44.707Z,16.09
2018-09-14T23:17:13.044Z,16.14
2018-09-14T23:19:42.007Z,16.18
2018-09-14T23:22:10.294Z,16.20
2018-09-14T23:24:38.631Z,16.20
2018-09-14T23:27:06.965Z,16.25
2018-09-14T23:29:35.292Z,16.31
2018-09-14T23:32:03.040Z,16.37
2018-09-14T23:34:31.386Z,16.42
2018-09-14T23:37:00.307Z,16.46
2018-09-14T23:39:28.049Z,16.47
2018-09-14T23:41:56.968Z,16.40
2018-09-14T23:44:25.302Z,16.42
2018-09-14T23:46:53.647Z,16.41
2018-09-14T23:49:21.404Z,16.36
2018-09-14T23:51:50.321Z,16.27
2018-09-14T23:54:18.674Z,16.22
2018-09-14T23:56:47.001Z,16.22
2018-09-14T23:59:15.327Z,16.22
